sensor_id;sensor_type;location;lat;lon;timestamp;P1;durP1;ratioP1;P2;durP2;ratioP2
80272;SDS011;69574;45.328;9.598;2024-03-02T00:00:23;17.17;;;11.15;;
80272;SDS011;69574;45.328;9.598;2024-03-02T00:02:59;16.65;;;10.38;;
80272;SDS011;69574;45.328;9.598;2024-03-02T00:05:29;16.70;;;10.82;;
80272;SDS011;69574;45.328;9.598;2024-03-02T00:07:57;17.42;;;10.88;;
80272;SDS011;69574;45.328;9.598;2024-03-02T00:10:23;17.77;;;11.68;;
80272;SDS011;69574;45.328;9.598;2024-03-02T00:12:54;18.23;;;11.27;;
80272;SDS011;69574;45.328;9.598;2024-03-02T00:15:28;15.98;;;11.02;;
80272;SDS011;69574;45.328;9.598;2024-03-02T00:18:00;19.75;;;11.25;;
80272;SDS011;69574;45.328;9.598;2024-03-02T00:20:26;17.27;;;11.32;;
80272;SDS011;69574;45.328;9.598;2024-03-02T00:22:55;16.45;;;11.73;;
80272;SDS011;69574;45.328;9.598;2024-03-02T00:25:23;17.23;;;11.48;;
80272;SDS011;69574;45.328;9.598;2024-03-02T00:27:48;18.27;;;10.43;;
80272;SDS011;69574;45.328;9.598;2024-03-02T00:30:26;16.95;;;11.10;;
80272;SDS011;69574;45.328;9.598;2024-03-02T00:33:02;19.80;;;10.77;;
80272;SDS011;69574;45.328;9.598;2024-03-02T00:35:28;18.63;;;10.55;;
80272;SDS011;69574;45.328;9.598;2024-03-02T00:37:54;15.50;;;10.27;;
80272;SDS011;69574;45.328;9.598;2024-03-02T00:40:20;15.48;;;10.15;;
80272;SDS011;69574;45.328;9.598;2024-03-02T00:42:45;15.55;;;10.60;;
80272;SDS011;69574;45.328;9.598;2024-03-02T00:45:11;16.38;;;9.32;;
80272;SDS011;69574;45.328;9.598;2024-03-02T00:47:37;14.85;;;9.35;;
80272;SDS011;69574;45.328;9.598;2024-03-02T00:50:05;17.42;;;9.82;;
80272;SDS011;69574;45.328;9.598;2024-03-02T00:52:33;16.85;;;9.52;;
80272;SDS011;69574;45.328;9.598;2024-03-02T00:54:59;15.32;;;8.98;;
80272;SDS011;69574;45.328;9.598;2024-03-02T00:57:25;16.05;;;9.02;;
80272;SDS011;69574;45.328;9.598;2024-03-02T00:59:51;13.85;;;8.77;;
80272;SDS011;69574;45.328;9.598;2024-03-02T01:02:16;15.93;;;9.18;;
80272;SDS011;69574;45.328;9.598;2024-03-02T01:04:42;13.98;;;8.85;;
80272;SDS011;69574;45.328;9.598;2024-03-02T01:07:09;13.40;;;8.48;;
80272;SDS011;69574;45.328;9.598;2024-03-02T01:09:35;13.90;;;9.20;;
80272;SDS011;69574;45.328;9.598;2024-03-02T01:12:00;14.80;;;8.45;;
80272;SDS011;69574;45.328;9.598;2024-03-02T01:14:26;15.32;;;9.43;;
80272;SDS011;69574;45.328;9.598;2024-03-02T01:16:51;12.32;;;8.13;;
80272;SDS011;69574;45.328;9.598;2024-03-02T01:19:17;16.58;;;10.10;;
80272;SDS011;69574;45.328;9.598;2024-03-02T01:21:43;15.82;;;9.07;;
80272;SDS011;69574;45.328;9.598;2024-03-02T01:24:10;15.73;;;9.38;;
80272;SDS011;69574;45.328;9.598;2024-03-02T01:26:36;15.93;;;10.25;;
80272;SDS011;69574;45.328;9.598;2024-03-02T01:29:02;18.08;;;10.70;;
80272;SDS011;69574;45.328;9.598;2024-03-02T01:31:28;17.00;;;10.43;;
80272;SDS011;69574;45.328;9.598;2024-03-02T01:33:53;17.63;;;11.10;;
80272;SDS011;69574;45.328;9.598;2024-03-02T01:36:19;17.13;;;10.60;;
80272;SDS011;69574;45.328;9.598;2024-03-02T01:38:44;16.50;;;10.50;;
80272;SDS011;69574;45.328;9.598;2024-03-02T01:41:11;17.50;;;11.32;;
80272;SDS011;69574;45.328;9.598;2024-03-02T01:43:37;20.58;;;11.75;;
80272;SDS011;69574;45.328;9.598;2024-03-02T01:46:02;15.20;;;10.32;;
80272;SDS011;69574;45.328;9.598;2024-03-02T01:48:28;15.48;;;10.43;;
80272;SDS011;69574;45.328;9.598;2024-03-02T01:50:54;17.40;;;10.18;;
80272;SDS011;69574;45.328;9.598;2024-03-02T01:53:20;15.55;;;10.70;;
80272;SDS011;69574;45.328;9.598;2024-03-02T01:55:46;13.70;;;10.10;;
80272;SDS011;69574;45.328;9.598;2024-03-02T01:58:13;14.80;;;10.50;;
80272;SDS011;69574;45.328;9.598;2024-03-02T02:00:39;14.43;;;9.10;;
80272;SDS011;69574;45.328;9.598;2024-03-02T02:03:04;18.48;;;9.77;;
80272;SDS011;69574;45.328;9.598;2024-03-02T02:05:30;16.27;;;9.85;;
80272;SDS011;69574;45.328;9.598;2024-03-02T02:07:56;12.77;;;9.35;;
80272;SDS011;69574;45.328;9.598;2024-03-02T02:12:48;16.80;;;9.20;;
80272;SDS011;69574;45.328;9.598;2024-03-02T02:15:26;15.25;;;8.43;;
80272;SDS011;69574;45.328;9.598;2024-03-02T02:17:52;14.77;;;8.02;;
80272;SDS011;69574;45.328;9.598;2024-03-02T02:20:17;13.82;;;7.35;;
80272;SDS011;69574;45.328;9.598;2024-03-02T02:22:58;12.77;;;8.00;;
80272;SDS011;69574;45.328;9.598;2024-03-02T02:25:24;15.63;;;8.32;;
80272;SDS011;69574;45.328;9.598;2024-03-02T02:27:49;12.63;;;5.72;;
80272;SDS011;69574;45.328;9.598;2024-03-02T02:30:18;14.15;;;6.05;;
80272;SDS011;69574;45.328;9.598;2024-03-02T02:32:43;12.57;;;6.30;;
80272;SDS011;69574;45.328;9.598;2024-03-02T02:35:09;8.15;;;4.35;;
80272;SDS011;69574;45.328;9.598;2024-03-02T02:37:34;9.88;;;5.65;;
80272;SDS011;69574;45.328;9.598;2024-03-02T02:40:02;10.98;;;4.15;;
80272;SDS011;69574;45.328;9.598;2024-03-02T02:42:30;10.05;;;3.80;;
80272;SDS011;69574;45.328;9.598;2024-03-02T02:44:55;7.13;;;3.90;;
80272;SDS011;69574;45.328;9.598;2024-03-02T02:47:21;13.60;;;3.78;;
80272;SDS011;69574;45.328;9.598;2024-03-02T02:49:46;8.50;;;3.50;;
80272;SDS011;69574;45.328;9.598;2024-03-02T02:52:12;12.02;;;3.67;;
80272;SDS011;69574;45.328;9.598;2024-03-02T02:54:37;7.88;;;3.80;;
80272;SDS011;69574;45.328;9.598;2024-03-02T02:57:05;6.88;;;3.72;;
80272;SDS011;69574;45.328;9.598;2024-03-02T02:59:30;9.80;;;3.88;;
80272;SDS011;69574;45.328;9.598;2024-03-02T03:01:56;9.38;;;4.20;;
80272;SDS011;69574;45.328;9.598;2024-03-02T03:04:21;12.32;;;3.92;;
80272;SDS011;69574;45.328;9.598;2024-03-02T03:06:47;12.57;;;4.13;;
80272;SDS011;69574;45.328;9.598;2024-03-02T03:09:13;7.85;;;3.85;;
80272;SDS011;69574;45.328;9.598;2024-03-02T03:11:38;11.23;;;3.63;;
80272;SDS011;69574;45.328;9.598;2024-03-02T03:14:06;7.82;;;3.97;;
80272;SDS011;69574;45.328;9.598;2024-03-02T03:16:31;7.35;;;3.53;;
80272;SDS011;69574;45.328;9.598;2024-03-02T03:18:57;9.85;;;3.88;;
80272;SDS011;69574;45.328;9.598;2024-03-02T03:21:23;9.80;;;3.60;;
80272;SDS011;69574;45.328;9.598;2024-03-02T03:23:48;10.40;;;4.75;;
80272;SDS011;69574;45.328;9.598;2024-03-02T03:26:14;10.30;;;4.13;;
80272;SDS011;69574;45.328;9.598;2024-03-02T03:28:40;6.80;;;3.75;;
80272;SDS011;69574;45.328;9.598;2024-03-02T03:31:07;10.50;;;4.00;;
80272;SDS011;69574;45.328;9.598;2024-03-02T03:33:32;8.50;;;3.95;;
80272;SDS011;69574;45.328;9.598;2024-03-02T03:35:58;7.55;;;4.35;;
80272;SDS011;69574;45.328;9.598;2024-03-02T03:38:24;8.48;;;4.90;;
80272;SDS011;69574;45.328;9.598;2024-03-02T03:40:49;10.10;;;4.00;;
80272;SDS011;69574;45.328;9.598;2024-03-02T03:43:15;9.13;;;4.43;;
80272;SDS011;69574;45.328;9.598;2024-03-02T03:45:40;9.88;;;4.40;;
80272;SDS011;69574;45.328;9.598;2024-03-02T03:48:08;10.18;;;4.90;;
80272;SDS011;69574;45.328;9.598;2024-03-02T03:50:34;10.82;;;5.18;;
80272;SDS011;69574;45.328;9.598;2024-03-02T03:52:59;10.32;;;5.10;;
80272;SDS011;69574;45.328;9.598;2024-03-02T03:55:25;11.55;;;5.40;;
80272;SDS011;69574;45.328;9.598;2024-03-02T03:57:51;13.45;;;6.18;;
80272;SDS011;69574;45.328;9.598;2024-03-02T04:00:17;9.27;;;5.00;;
80272;SDS011;69574;45.328;9.598;2024-03-02T04:02:42;8.38;;;4.53;;
80272;SDS011;69574;45.328;9.598;2024-03-02T04:05:09;9.95;;;5.85;;
80272;SDS011;69574;45.328;9.598;2024-03-02T04:07:36;10.85;;;5.63;;
80272;SDS011;69574;45.328;9.598;2024-03-02T04:10:06;9.70;;;4.78;;
80272;SDS011;69574;45.328;9.598;2024-03-02T04:12:33;8.88;;;4.93;;
80272;SDS011;69574;45.328;9.598;2024-03-02T04:14:58;8.98;;;5.05;;
80272;SDS011;69574;45.328;9.598;2024-03-02T04:17:24;8.98;;;5.32;;
80272;SDS011;69574;45.328;9.598;2024-03-02T04:19:50;10.00;;;5.00;;
80272;SDS011;69574;45.328;9.598;2024-03-02T04:22:17;9.93;;;4.95;;
80272;SDS011;69574;45.328;9.598;2024-03-02T04:24:42;8.90;;;5.00;;
80272;SDS011;69574;45.328;9.598;2024-03-02T04:27:08;8.65;;;4.97;;
80272;SDS011;69574;45.328;9.598;2024-03-02T04:29:33;8.90;;;4.75;;
80272;SDS011;69574;45.328;9.598;2024-03-02T04:31:59;7.90;;;4.65;;
80272;SDS011;69574;45.328;9.598;2024-03-02T04:34:25;7.53;;;4.95;;
80272;SDS011;69574;45.328;9.598;2024-03-02T04:36:50;10.27;;;5.05;;
80272;SDS011;69574;45.328;9.598;2024-03-02T04:39:17;8.50;;;4.45;;
80272;SDS011;69574;45.328;9.598;2024-03-02T04:41:43;8.82;;;4.70;;
80272;SDS011;69574;45.328;9.598;2024-03-02T04:44:09;7.57;;;4.80;;
80272;SDS011;69574;45.328;9.598;2024-03-02T04:46:34;8.90;;;5.10;;
80272;SDS011;69574;45.328;9.598;2024-03-02T04:49:00;9.98;;;4.72;;
80272;SDS011;69574;45.328;9.598;2024-03-02T04:51:25;10.38;;;5.22;;
80272;SDS011;69574;45.328;9.598;2024-03-02T04:53:51;11.88;;;5.15;;
80272;SDS011;69574;45.328;9.598;2024-03-02T04:56:18;9.85;;;5.13;;
80272;SDS011;69574;45.328;9.598;2024-03-02T04:59:02;7.90;;;5.18;;
80272;SDS011;69574;45.328;9.598;2024-03-02T05:01:27;8.98;;;6.05;;
80272;SDS011;69574;45.328;9.598;2024-03-02T05:03:53;13.25;;;6.90;;
80272;SDS011;69574;45.328;9.598;2024-03-02T05:06:19;10.43;;;6.57;;
80272;SDS011;69574;45.328;9.598;2024-03-02T05:08:44;11.30;;;6.78;;
80272;SDS011;69574;45.328;9.598;2024-03-02T05:11:10;10.93;;;6.93;;
80272;SDS011;69574;45.328;9.598;2024-03-02T05:13:55;12.55;;;6.28;;
80272;SDS011;69574;45.328;9.598;2024-03-02T05:16:21;10.85;;;6.72;;
80272;SDS011;69574;45.328;9.598;2024-03-02T05:18:47;10.65;;;6.53;;
80272;SDS011;69574;45.328;9.598;2024-03-02T05:21:13;10.77;;;7.35;;
80272;SDS011;69574;45.328;9.598;2024-03-02T05:23:38;12.05;;;7.47;;
80272;SDS011;69574;45.328;9.598;2024-03-02T05:26:04;11.68;;;7.40;;
80272;SDS011;69574;45.328;9.598;2024-03-02T05:28:30;11.30;;;7.60;;
80272;SDS011;69574;45.328;9.598;2024-03-02T05:30:57;12.25;;;7.60;;
80272;SDS011;69574;45.328;9.598;2024-03-02T05:33:22;11.73;;;8.00;;
80272;SDS011;69574;45.328;9.598;2024-03-02T05:35:48;10.82;;;7.90;;
80272;SDS011;69574;45.328;9.598;2024-03-02T05:40:40;11.97;;;7.13;;
80272;SDS011;69574;45.328;9.598;2024-03-02T05:43:05;11.48;;;7.32;;
80272;SDS011;69574;45.328;9.598;2024-03-02T05:45:31;14.20;;;7.22;;
80272;SDS011;69574;45.328;9.598;2024-03-02T05:47:58;10.75;;;7.65;;
80272;SDS011;69574;45.328;9.598;2024-03-02T05:52:49;11.27;;;6.17;;
80272;SDS011;69574;45.328;9.598;2024-03-02T05:55:14;14.45;;;8.60;;
80272;SDS011;69574;45.328;9.598;2024-03-02T05:57:40;12.77;;;7.07;;
80272;SDS011;69574;45.328;9.598;2024-03-02T06:00:08;9.88;;;5.95;;
80272;SDS011;69574;45.328;9.598;2024-03-02T06:02:34;9.88;;;5.85;;
80272;SDS011;69574;45.328;9.598;2024-03-02T06:05:04;10.95;;;5.03;;
80272;SDS011;69574;45.328;9.598;2024-03-02T06:07:30;7.07;;;3.83;;
80272;SDS011;69574;45.328;9.598;2024-03-02T06:09:55;8.18;;;3.75;;
80272;SDS011;69574;45.328;9.598;2024-03-02T06:12:21;10.38;;;3.63;;
80272;SDS011;69574;45.328;9.598;2024-03-02T06:14:46;6.90;;;3.47;;
80272;SDS011;69574;45.328;9.598;2024-03-02T06:17:12;6.78;;;3.47;;
80272;SDS011;69574;45.328;9.598;2024-03-02T06:19:38;8.88;;;3.38;;
80272;SDS011;69574;45.328;9.598;2024-03-02T06:22:05;8.60;;;3.58;;
80272;SDS011;69574;45.328;9.598;2024-03-02T06:24:31;10.25;;;3.45;;
80272;SDS011;69574;45.328;9.598;2024-03-02T06:26:56;7.63;;;3.15;;
80272;SDS011;69574;45.328;9.598;2024-03-02T06:29:22;8.80;;;3.45;;
80272;SDS011;69574;45.328;9.598;2024-03-02T06:31:48;7.90;;;3.50;;
80272;SDS011;69574;45.328;9.598;2024-03-02T06:34:13;10.18;;;3.38;;
80272;SDS011;69574;45.328;9.598;2024-03-02T06:36:39;9.70;;;2.83;;
80272;SDS011;69574;45.328;9.598;2024-03-02T06:39:07;12.05;;;3.20;;
80272;SDS011;69574;45.328;9.598;2024-03-02T06:41:32;11.27;;;3.22;;
80272;SDS011;69574;45.328;9.598;2024-03-02T06:43:59;9.35;;;3.13;;
80272;SDS011;69574;45.328;9.598;2024-03-02T06:46:27;8.30;;;2.70;;
80272;SDS011;69574;45.328;9.598;2024-03-02T06:48:52;9.43;;;3.05;;
80272;SDS011;69574;45.328;9.598;2024-03-02T06:51:18;8.02;;;2.90;;
80272;SDS011;69574;45.328;9.598;2024-03-02T06:53:46;7.93;;;2.83;;
80272;SDS011;69574;45.328;9.598;2024-03-02T06:56:15;10.25;;;3.42;;
80272;SDS011;69574;45.328;9.598;2024-03-02T06:58:41;11.13;;;3.10;;
80272;SDS011;69574;45.328;9.598;2024-03-02T07:01:08;10.00;;;2.90;;
80272;SDS011;69574;45.328;9.598;2024-03-02T07:03:33;10.35;;;3.03;;
80272;SDS011;69574;45.328;9.598;2024-03-02T07:05:59;10.20;;;3.10;;
80272;SDS011;69574;45.328;9.598;2024-03-02T07:08:24;8.40;;;3.08;;
80272;SDS011;69574;45.328;9.598;2024-03-02T07:10:50;11.15;;;3.38;;
80272;SDS011;69574;45.328;9.598;2024-03-02T07:13:17;12.60;;;3.22;;
80272;SDS011;69574;45.328;9.598;2024-03-02T07:15:42;8.65;;;3.10;;
80272;SDS011;69574;45.328;9.598;2024-03-02T07:18:24;8.88;;;3.22;;
80272;SDS011;69574;45.328;9.598;2024-03-02T07:20:50;7.78;;;2.95;;
80272;SDS011;69574;45.328;9.598;2024-03-02T07:23:16;9.70;;;3.53;;
80272;SDS011;69574;45.328;9.598;2024-03-02T07:25:41;9.73;;;5.57;;
80272;SDS011;69574;45.328;9.598;2024-03-02T07:28:07;9.10;;;3.20;;
80272;SDS011;69574;45.328;9.598;2024-03-02T07:30:34;9.15;;;2.97;;
80272;SDS011;69574;45.328;9.598;2024-03-02T07:32:59;9.38;;;3.20;;
80272;SDS011;69574;45.328;9.598;2024-03-02T07:35:25;11.43;;;6.80;;
80272;SDS011;69574;45.328;9.598;2024-03-02T07:37:53;10.25;;;3.45;;
80272;SDS011;69574;45.328;9.598;2024-03-02T07:40:19;9.48;;;3.28;;
80272;SDS011;69574;45.328;9.598;2024-03-02T07:42:45;7.68;;;3.13;;
80272;SDS011;69574;45.328;9.598;2024-03-02T07:45:11;8.93;;;3.13;;
80272;SDS011;69574;45.328;9.598;2024-03-02T07:47:38;8.95;;;3.28;;
80272;SDS011;69574;45.328;9.598;2024-03-02T07:50:04;7.78;;;3.33;;
80272;SDS011;69574;45.328;9.598;2024-03-02T07:52:31;8.75;;;3.22;;
80272;SDS011;69574;45.328;9.598;2024-03-02T07:54:57;8.43;;;2.97;;
80272;SDS011;69574;45.328;9.598;2024-03-02T07:57:22;7.38;;;2.97;;
80272;SDS011;69574;45.328;9.598;2024-03-02T07:59:48;9.52;;;3.45;;
80272;SDS011;69574;45.328;9.598;2024-03-02T08:02:14;7.63;;;2.92;;
80272;SDS011;69574;45.328;9.598;2024-03-02T08:04:41;9.30;;;2.92;;
80272;SDS011;69574;45.328;9.598;2024-03-02T08:07:07;8.65;;;2.83;;
80272;SDS011;69574;45.328;9.598;2024-03-02T08:09:34;8.02;;;3.42;;
80272;SDS011;69574;45.328;9.598;2024-03-02T08:12:00;10.57;;;3.22;;
80272;SDS011;69574;45.328;9.598;2024-03-02T08:14:25;10.43;;;3.40;;
80272;SDS011;69574;45.328;9.598;2024-03-02T08:16:51;9.23;;;3.20;;
80272;SDS011;69574;45.328;9.598;2024-03-02T08:19:16;10.90;;;3.28;;
80272;SDS011;69574;45.328;9.598;2024-03-02T08:21:43;7.43;;;3.22;;
80272;SDS011;69574;45.328;9.598;2024-03-02T08:24:09;10.75;;;3.40;;
80272;SDS011;69574;45.328;9.598;2024-03-02T08:26:35;11.95;;;3.83;;
80272;SDS011;69574;45.328;9.598;2024-03-02T08:29:01;7.75;;;3.15;;
80272;SDS011;69574;45.328;9.598;2024-03-02T08:31:29;7.25;;;3.15;;
80272;SDS011;69574;45.328;9.598;2024-03-02T08:33:54;7.80;;;3.42;;
80272;SDS011;69574;45.328;9.598;2024-03-02T08:36:22;10.25;;;3.22;;
80272;SDS011;69574;45.328;9.598;2024-03-02T08:38:49;8.10;;;3.08;;
80272;SDS011;69574;45.328;9.598;2024-03-02T08:41:15;9.98;;;4.10;;
80272;SDS011;69574;45.328;9.598;2024-03-02T08:43:41;9.75;;;3.38;;
80272;SDS011;69574;45.328;9.598;2024-03-02T08:46:07;10.30;;;3.20;;
80272;SDS011;69574;45.328;9.598;2024-03-02T08:48:33;7.50;;;3.05;;
80272;SDS011;69574;45.328;9.598;2024-03-02T08:50:59;7.35;;;2.95;;
80272;SDS011;69574;45.328;9.598;2024-03-02T08:53:25;9.20;;;3.53;;
80272;SDS011;69574;45.328;9.598;2024-03-02T08:55:52;7.00;;;3.58;;
80272;SDS011;69574;45.328;9.598;2024-03-02T08:58:17;8.25;;;3.55;;
80272;SDS011;69574;45.328;9.598;2024-03-02T09:00:43;9.88;;;3.70;;
80272;SDS011;69574;45.328;9.598;2024-03-02T09:03:09;8.50;;;4.15;;
80272;SDS011;69574;45.328;9.598;2024-03-02T09:05:34;10.57;;;4.30;;
80272;SDS011;69574;45.328;9.598;2024-03-02T09:08:00;8.23;;;3.45;;
80272;SDS011;69574;45.328;9.598;2024-03-02T09:10:25;17.20;;;7.03;;
80272;SDS011;69574;45.328;9.598;2024-03-02T09:12:52;11.55;;;4.82;;
80272;SDS011;69574;45.328;9.598;2024-03-02T09:15:18;14.13;;;5.20;;
80272;SDS011;69574;45.328;9.598;2024-03-02T09:17:43;10.18;;;4.88;;
80272;SDS011;69574;45.328;9.598;2024-03-02T09:20:10;8.85;;;4.07;;
80272;SDS011;69574;45.328;9.598;2024-03-02T09:22:36;10.88;;;4.38;;
80272;SDS011;69574;45.328;9.598;2024-03-02T09:25:01;7.20;;;3.83;;
80272;SDS011;69574;45.328;9.598;2024-03-02T09:27:27;11.98;;;4.00;;
80272;SDS011;69574;45.328;9.598;2024-03-02T09:29:54;10.85;;;4.40;;
80272;SDS011;69574;45.328;9.598;2024-03-02T09:32:20;6.95;;;3.63;;
80272;SDS011;69574;45.328;9.598;2024-03-02T09:34:45;10.73;;;3.85;;
80272;SDS011;69574;45.328;9.598;2024-03-02T09:37:13;7.50;;;3.78;;
80272;SDS011;69574;45.328;9.598;2024-03-02T09:39:39;7.00;;;3.97;;
80272;SDS011;69574;45.328;9.598;2024-03-02T09:42:05;8.57;;;4.07;;
80272;SDS011;69574;45.328;9.598;2024-03-02T09:44:31;12.73;;;4.32;;
80272;SDS011;69574;45.328;9.598;2024-03-02T09:46:58;10.15;;;3.80;;
80272;SDS011;69574;45.328;9.598;2024-03-02T09:49:23;10.15;;;4.30;;
80272;SDS011;69574;45.328;9.598;2024-03-02T09:51:49;11.82;;;4.10;;
80272;SDS011;69574;45.328;9.598;2024-03-02T09:54:15;7.95;;;3.78;;
80272;SDS011;69574;45.328;9.598;2024-03-02T09:56:41;11.80;;;4.00;;
80272;SDS011;69574;45.328;9.598;2024-03-02T09:59:06;9.70;;;4.10;;
80272;SDS011;69574;45.328;9.598;2024-03-02T10:01:32;8.13;;;4.20;;
80272;SDS011;69574;45.328;9.598;2024-03-02T10:03:59;25.85;;;5.40;;
80272;SDS011;69574;45.328;9.598;2024-03-02T10:06:25;15.82;;;4.03;;
80272;SDS011;69574;45.328;9.598;2024-03-02T10:08:52;18.02;;;5.20;;
80272;SDS011;69574;45.328;9.598;2024-03-02T10:11:25;23.60;;;5.50;;
80272;SDS011;69574;45.328;9.598;2024-03-02T10:13:51;15.55;;;4.63;;
80272;SDS011;69574;45.328;9.598;2024-03-02T10:16:16;11.10;;;4.78;;
80272;SDS011;69574;45.328;9.598;2024-03-02T10:18:42;13.85;;;4.88;;
80272;SDS011;69574;45.328;9.598;2024-03-02T10:21:14;7.95;;;4.70;;
80272;SDS011;69574;45.328;9.598;2024-03-02T10:23:40;17.27;;;5.05;;
80272;SDS011;69574;45.328;9.598;2024-03-02T10:26:07;9.57;;;4.97;;
80272;SDS011;69574;45.328;9.598;2024-03-02T10:28:44;19.65;;;5.55;;
80272;SDS011;69574;45.328;9.598;2024-03-02T10:31:11;10.23;;;5.20;;
80272;SDS011;69574;45.328;9.598;2024-03-02T10:33:36;9.65;;;5.15;;
80272;SDS011;69574;45.328;9.598;2024-03-02T10:36:02;9.70;;;4.85;;
80272;SDS011;69574;45.328;9.598;2024-03-02T10:38:30;8.13;;;5.35;;
80272;SDS011;69574;45.328;9.598;2024-03-02T10:40:55;9.68;;;5.05;;
80272;SDS011;69574;45.328;9.598;2024-03-02T10:43:24;9.02;;;4.78;;
80272;SDS011;69574;45.328;9.598;2024-03-02T10:45:51;10.23;;;5.15;;
80272;SDS011;69574;45.328;9.598;2024-03-02T10:48:17;11.98;;;4.70;;
80272;SDS011;69574;45.328;9.598;2024-03-02T10:50:43;11.10;;;5.15;;
80272;SDS011;69574;45.328;9.598;2024-03-02T10:53:08;10.65;;;4.60;;
80272;SDS011;69574;45.328;9.598;2024-03-02T10:55:35;7.07;;;4.60;;
80272;SDS011;69574;45.328;9.598;2024-03-02T10:58:01;7.78;;;4.78;;
80272;SDS011;69574;45.328;9.598;2024-03-02T11:00:31;13.23;;;4.55;;
80272;SDS011;69574;45.328;9.598;2024-03-02T11:03:02;9.77;;;4.32;;
80272;SDS011;69574;45.328;9.598;2024-03-02T11:05:31;9.65;;;4.93;;
80272;SDS011;69574;45.328;9.598;2024-03-02T11:07:57;8.45;;;4.82;;
80272;SDS011;69574;45.328;9.598;2024-03-02T11:10:26;8.88;;;4.90;;
80272;SDS011;69574;45.328;9.598;2024-03-02T11:16:18;10.18;;;4.80;;
80272;SDS011;69574;45.328;9.598;2024-03-02T11:18:47;7.18;;;4.38;;
80272;SDS011;69574;45.328;9.598;2024-03-02T11:21:15;7.35;;;4.63;;
80272;SDS011;69574;45.328;9.598;2024-03-02T11:26:43;6.97;;;4.53;;
80272;SDS011;69574;45.328;9.598;2024-03-02T11:29:09;6.22;;;4.22;;
80272;SDS011;69574;45.328;9.598;2024-03-02T11:31:59;8.73;;;4.95;;
80272;SDS011;69574;45.328;9.598;2024-03-02T11:34:28;5.82;;;3.88;;
80272;SDS011;69574;45.328;9.598;2024-03-02T11:36:54;6.82;;;3.95;;
80272;SDS011;69574;45.328;9.598;2024-03-02T11:39:20;8.32;;;4.35;;
80272;SDS011;69574;45.328;9.598;2024-03-02T11:41:45;7.20;;;4.30;;
80272;SDS011;69574;45.328;9.598;2024-03-02T11:44:11;6.60;;;4.13;;
80272;SDS011;69574;45.328;9.598;2024-03-02T11:46:39;7.60;;;4.30;;
80272;SDS011;69574;45.328;9.598;2024-03-02T11:49:06;5.10;;;3.45;;
80272;SDS011;69574;45.328;9.598;2024-03-02T11:51:32;6.50;;;3.83;;
80272;SDS011;69574;45.328;9.598;2024-03-02T11:53:58;7.00;;;3.75;;
80272;SDS011;69574;45.328;9.598;2024-03-02T11:56:24;6.05;;;4.15;;
80272;SDS011;69574;45.328;9.598;2024-03-02T11:58:51;6.90;;;4.03;;
80272;SDS011;69574;45.328;9.598;2024-03-02T12:01:19;5.65;;;3.70;;
80272;SDS011;69574;45.328;9.598;2024-03-02T12:03:45;6.85;;;4.70;;
80272;SDS011;69574;45.328;9.598;2024-03-02T12:06:12;5.10;;;3.78;;
80272;SDS011;69574;45.328;9.598;2024-03-02T12:08:38;7.70;;;4.63;;
80272;SDS011;69574;45.328;9.598;2024-03-02T12:11:04;5.65;;;3.80;;
80272;SDS011;69574;45.328;9.598;2024-03-02T12:13:31;6.05;;;4.20;;
80272;SDS011;69574;45.328;9.598;2024-03-02T12:15:58;8.18;;;3.90;;
80272;SDS011;69574;45.328;9.598;2024-03-02T12:18:24;6.10;;;4.20;;
80272;SDS011;69574;45.328;9.598;2024-03-02T12:20:50;6.93;;;4.18;;
80272;SDS011;69574;45.328;9.598;2024-03-02T12:23:23;6.95;;;4.53;;
80272;SDS011;69574;45.328;9.598;2024-03-02T12:25:49;5.60;;;3.97;;
80272;SDS011;69574;45.328;9.598;2024-03-02T12:28:15;6.68;;;4.55;;
80272;SDS011;69574;45.328;9.598;2024-03-02T12:30:41;6.55;;;3.90;;
80272;SDS011;69574;45.328;9.598;2024-03-02T12:33:06;6.47;;;3.90;;
80272;SDS011;69574;45.328;9.598;2024-03-02T12:35:32;6.10;;;4.30;;
80272;SDS011;69574;45.328;9.598;2024-03-02T12:37:58;7.70;;;4.60;;
80272;SDS011;69574;45.328;9.598;2024-03-02T12:40:25;8.20;;;4.50;;
80272;SDS011;69574;45.328;9.598;2024-03-02T12:42:51;6.50;;;4.53;;
80272;SDS011;69574;45.328;9.598;2024-03-02T12:45:17;7.13;;;4.82;;
80272;SDS011;69574;45.328;9.598;2024-03-02T12:47:49;9.15;;;4.53;;
80272;SDS011;69574;45.328;9.598;2024-03-02T12:50:14;7.20;;;4.80;;
80272;SDS011;69574;45.328;9.598;2024-03-02T12:52:40;6.97;;;4.90;;
80272;SDS011;69574;45.328;9.598;2024-03-02T12:55:06;7.47;;;4.80;;
80272;SDS011;69574;45.328;9.598;2024-03-02T12:57:33;5.32;;;3.92;;
80272;SDS011;69574;45.328;9.598;2024-03-02T12:59:59;7.47;;;3.92;;
80272;SDS011;69574;45.328;9.598;2024-03-02T13:02:27;5.50;;;3.90;;
80272;SDS011;69574;45.328;9.598;2024-03-02T13:04:53;6.63;;;3.67;;
80272;SDS011;69574;45.328;9.598;2024-03-02T13:07:19;6.65;;;4.22;;
80272;SDS011;69574;45.328;9.598;2024-03-02T13:09:46;7.15;;;4.15;;
80272;SDS011;69574;45.328;9.598;2024-03-02T13:12:13;6.53;;;4.38;;
80272;SDS011;69574;45.328;9.598;2024-03-02T13:14:41;5.63;;;3.55;;
80272;SDS011;69574;45.328;9.598;2024-03-02T13:17:07;7.82;;;3.97;;
80272;SDS011;69574;45.328;9.598;2024-03-02T13:19:33;6.93;;;4.32;;
80272;SDS011;69574;45.328;9.598;2024-03-02T13:21:59;6.95;;;4.50;;
80272;SDS011;69574;45.328;9.598;2024-03-02T13:24:27;6.30;;;4.38;;
80272;SDS011;69574;45.328;9.598;2024-03-02T13:26:56;7.43;;;4.68;;
80272;SDS011;69574;45.328;9.598;2024-03-02T13:29:23;5.65;;;4.10;;
80272;SDS011;69574;45.328;9.598;2024-03-02T13:31:50;6.55;;;4.30;;
80272;SDS011;69574;45.328;9.598;2024-03-02T13:34:16;13.00;;;4.45;;
80272;SDS011;69574;45.328;9.598;2024-03-02T13:36:42;7.13;;;4.22;;
80272;SDS011;69574;45.328;9.598;2024-03-02T13:39:08;6.55;;;3.88;;
80272;SDS011;69574;45.328;9.598;2024-03-02T13:41:36;7.72;;;4.07;;
80272;SDS011;69574;45.328;9.598;2024-03-02T13:44:02;6.18;;;4.00;;
80272;SDS011;69574;45.328;9.598;2024-03-02T13:46:27;10.02;;;4.30;;
80272;SDS011;69574;45.328;9.598;2024-03-02T13:48:55;5.85;;;3.80;;
80272;SDS011;69574;45.328;9.598;2024-03-02T13:51:21;5.50;;;3.53;;
80272;SDS011;69574;45.328;9.598;2024-03-02T13:53:46;5.88;;;4.00;;
80272;SDS011;69574;45.328;9.598;2024-03-02T13:56:12;5.95;;;3.80;;
80272;SDS011;69574;45.328;9.598;2024-03-02T13:58:38;5.93;;;3.72;;
80272;SDS011;69574;45.328;9.598;2024-03-02T14:01:04;6.35;;;4.30;;
80272;SDS011;69574;45.328;9.598;2024-03-02T14:03:30;5.97;;;4.07;;
80272;SDS011;69574;45.328;9.598;2024-03-02T14:05:57;5.75;;;3.70;;
80272;SDS011;69574;45.328;9.598;2024-03-02T14:08:23;7.13;;;3.80;;
80272;SDS011;69574;45.328;9.598;2024-03-02T14:10:48;6.72;;;4.25;;
80272;SDS011;69574;45.328;9.598;2024-03-02T14:13:14;7.70;;;4.35;;
80272;SDS011;69574;45.328;9.598;2024-03-02T14:15:41;7.13;;;4.60;;
80272;SDS011;69574;45.328;9.598;2024-03-02T14:18:06;7.03;;;4.65;;
80272;SDS011;69574;45.328;9.598;2024-03-02T14:20:35;8.43;;;4.90;;
80272;SDS011;69574;45.328;9.598;2024-03-02T14:23:02;8.45;;;4.97;;
80272;SDS011;69574;45.328;9.598;2024-03-02T14:25:28;8.75;;;5.10;;
80272;SDS011;69574;45.328;9.598;2024-03-02T14:27:56;8.10;;;5.00;;
80272;SDS011;69574;45.328;9.598;2024-03-02T14:30:22;11.57;;;5.68;;
80272;SDS011;69574;45.328;9.598;2024-03-02T14:32:48;7.65;;;5.07;;
80272;SDS011;69574;45.328;9.598;2024-03-02T14:35:14;8.07;;;5.70;;
80272;SDS011;69574;45.328;9.598;2024-03-02T14:37:40;24.92;;;6.32;;
80272;SDS011;69574;45.328;9.598;2024-03-02T14:40:08;12.73;;;5.90;;
80272;SDS011;69574;45.328;9.598;2024-03-02T14:42:34;9.27;;;5.68;;
80272;SDS011;69574;45.328;9.598;2024-03-02T14:45:00;8.52;;;5.45;;
80272;SDS011;69574;45.328;9.598;2024-03-02T14:47:28;8.65;;;5.68;;
80272;SDS011;69574;45.328;9.598;2024-03-02T14:49:53;11.95;;;5.25;;